Terminal Aerodrome Forecast
Issued by NWS Quad Cities IA IL

Home | Current Version | Previous Version | Text Only | Print | Product List | Glossary On
Versions: 1 2 3 4 5 6 7 8 9 10 11 12 13 14
000
FTUS43 KDVN 211700
TAFMLI
TAF
KMLI 211726Z 2118/2218 18009KT P6SM SKC
     FM221300 19011KT P6SM VCTS FEW050CB SCT200 PROB30 2213/2218 2SM
      TSRA BKN050CB OVC200=

USA.gov is the U.S. government's official web portal to all federal, state and local government web resources and services.